Date,TemperatureHighF,TemperatureAvgF,TemperatureLowF,DewpointHighF,DewpointAvgF,DewpointLowF,HumidityHigh,HumidityAvg,HumidityLow,PressureMaxIn,PressureMinIn,WindSpeedMaxMPH,WindSpeedAvgMPH,GustSpeedMaxMPH,PrecipitationSumIn
2013-2-1,50.8,29.3,16.2,25.5,17.9,12.7,89,68,23,30.22,29.98,26,4,26,0.00
2013-2-2,54.2,31.7,18.8,22.1,16.6,11.1,85,60,19,30.38,30.13,18,4,18,0.00
2013-2-3,46.7,28.9,17.8,23.1,17.2,11.5,84,65,27,30.22,29.87,6,1,6,0.00
2013-2-4,52.9,34.4,19.2,19.2,13.1,5.9,81,48,15,30.06,29.79,13,4,13,0.00
2013-2-5,58.4,44.0,18.1,23.5,17.5,12.4,79,38,19,30.11,29.71,24,7,24,0.00
2013-2-6,51.7,39.8,26.6,30.1,22.2,16.9,76,52,27,29.99,29.69,23,4,23,0.00
2013-2-7,47.9,32.1,20.6,30.6,19.9,4.2,91,65,18,30.20,29.99,20,4,20,0.00
2013-2-8,47.3,27.7,14.1,22.1,15.3,8.7,83,63,27,30.08,29.72,13,2,13,0.00
2013-2-9,36.2,25.4,14.9,27.3,17.8,9.8,85,73,56,29.84,29.58,17,4,17,0.00
2013-2-10,35.9,26.6,17.7,19.7,13.8,6.9,81,60,30,30.14,29.59,23,8,23,0.01
2013-2-11,32.5,21.6,10.2,13.2,9.9,3.8,78,62,41,30.26,30.05,12,2,12,0.00
2013-2-12,41.1,27.5,7.9,14.2,2.5,-7.0,83,40,14,30.23,30.07,16,3,16,0.00
2013-2-13,21.6,18.7,16.1,7.5,6.2,4.7,64,58,53,30.09,30.00,7,2,7,0.00
2013-2-14,28.5,25.6,21.9,20.7,13.5,8.4,77,60,43,30.39,30.30,26,5,26,0.00
2013-2-15,39.2,23.7,17.0,15.4,12.5,5.0,79,64,27,30.46,30.27,34,4,34,0.00
2013-2-16,58.4,30.7,12.6,20.7,10.8,6.3,82,52,13,30.33,29.84,13,3,13,0.00
2013-2-17,63.1,42.2,25.7,20.2,4.7,-9.6,65,28,5,29.84,29.40,27,11,27,0.00
2013-2-18,42.9,28.6,14.6,18.7,10.2,1.0,75,49,18,30.18,29.62,29,6,29,0.00
2013-2-19,42.5,24.4,10.4,12.7,7.6,2.0,75,52,24,30.20,29.85,18,2,18,0.00
2013-2-20,34.4,22.7,16.4,25.4,15.7,8.3,88,75,47,29.87,29.70,24,6,24,0.00
2013-2-21,19.7,14.7,9.2,13.1,10.2,4.6,87,82,74,30.12,29.81,10,2,10,0.00
2013-2-22,35.0,18.8,2.2,19.6,10.3,-3.4,86,70,45,30.22,29.93,13,2,13,0.06
2013-2-23,45.8,27.6,10.7,27.5,16.9,3.5,89,66,30,29.94,29.59,21,5,21,0.00
2013-2-24,28.8,25.6,7.6,26.8,23.3,2.3,92,91,79,30.28,29.65,28,9,28,0.05
2013-2-25,30.4,13.5,-1.4,22.4,6.9,-7.1,88,75,63,30.31,30.01,12,2,12,0.12
2013-2-26,32.4,21.3,2.2,25.8,16.6,-4.6,90,82,64,30.18,29.94,23,8,23,0.06
2013-2-27,36.6,24.3,9.2,17.0,11.3,1.7,77,59,32,30.45,30.17,17,5,17,0.02
2013-2-28,41.6,26.7,7.9,19.3,10.1,-1.2,74,52,23,30.49,30.22,15,5,15,0.00